createdAt,value
2018-12-04T00:00:40.888Z,81.60
2018-12-04T00:01:18.683Z,81.43
2018-12-04T00:01:55.743Z,81.45
2018-12-04T00:02:33.132Z,81.61
2018-12-04T00:03:10.577Z,81.61
2018-12-04T00:03:49.613Z,81.33
2018-12-04T00:04:26.729Z,81.33
2018-12-04T00:05:04.188Z,81.19
2018-12-04T00:05:41.566Z,81.19
2018-12-04T00:06:18.940Z,80.93
2018-12-04T00:06:56.016Z,80.87
2018-12-04T00:07:33.433Z,80.65
2018-12-04T00:08:10.786Z,80.65
2018-12-04T00:08:48.246Z,80.87
2018-12-04T00:09:25.296Z,80.67
2018-12-04T00:10:02.729Z,80.70
2018-12-04T00:10:40.074Z,80.70
2018-12-04T00:11:17.178Z,80.67
2018-12-04T00:11:54.638Z,80.67
2018-12-04T00:12:31.718Z,80.80
2018-12-04T00:13:09.180Z,80.22
2018-12-04T00:13:46.237Z,80.22
2018-12-04T00:14:23.343Z,80.12
2018-12-04T00:15:00.386Z,80.12
2018-12-04T00:15:37.460Z,80.25
2018-12-04T00:16:14.505Z,80.25
2018-12-04T00:16:52.009Z,80.67
2018-12-04T00:17:29.427Z,80.67
2018-12-04T00:18:07.132Z,80.98
2018-12-04T00:18:44.486Z,80.70
2018-12-04T00:19:22.377Z,80.70
2018-12-04T00:19:59.488Z,80.81
2018-12-04T00:20:36.641Z,80.45
2018-12-04T00:21:14.015Z,80.58
2018-12-04T00:21:51.130Z,80.58
2018-12-04T00:22:28.595Z,80.63
2018-12-04T00:23:05.817Z,80.55
2018-12-04T00:23:43.512Z,80.36
2018-12-04T00:24:20.683Z,80.36
2018-12-04T00:24:58.102Z,81.07
2018-12-04T00:25:35.170Z,80.67
2018-12-04T00:26:12.233Z,81.06
2018-12-04T00:26:49.336Z,81.06
2018-12-04T00:27:26.771Z,80.37
2018-12-04T00:28:03.860Z,80.84
2018-12-04T00:28:40.932Z,80.84
2018-12-04T00:29:18.429Z,80.83
2018-12-04T00:29:55.885Z,80.83
2018-12-04T00:30:33.483Z,80.12
2018-12-04T00:31:10.849Z,80.12
2018-12-04T00:31:48.254Z,80.27
2018-12-04T00:32:25.606Z,80.44
2018-12-04T00:33:02.981Z,80.41
2018-12-04T00:33:40.128Z,80.82
2018-12-04T00:34:57.816Z,80.65
2018-12-04T00:35:32.492Z,80.68
2018-12-04T00:36:07.153Z,80.67
2018-12-04T00:36:41.721Z,80.48
2018-12-04T00:37:16.342Z,80.52
2018-12-04T00:37:50.907Z,80.25
2018-12-04T00:38:25.569Z,80.37
2018-12-04T00:39:00.333Z,80.59
2018-12-04T00:39:35.197Z,80.04
2018-12-04T00:40:10.378Z,79.93
2018-12-04T00:40:44.954Z,80.04
2018-12-04T00:41:19.551Z,79.92
2018-12-04T00:41:54.170Z,79.64
2018-12-04T00:42:28.804Z,79.86
2018-12-04T00:43:03.884Z,79.99
2018-12-04T00:43:38.480Z,80.48
2018-12-04T00:44:13.153Z,80.72
2018-12-04T00:44:47.767Z,80.40
2018-12-04T00:45:22.394Z,80.47
2018-12-04T00:45:56.984Z,80.26
2018-12-04T00:46:31.690Z,80.04
2018-12-04T00:47:06.342Z,80.35
2018-12-04T00:47:40.903Z,80.12
2018-12-04T00:48:15.922Z,80.31
2018-12-04T00:48:50.628Z,80.92
2018-12-04T00:49:25.181Z,80.48
2018-12-04T00:49:59.921Z,80.78
2018-12-04T00:50:34.484Z,80.87
2018-12-04T00:51:09.044Z,80.82
2018-12-04T00:51:43.626Z,80.49
2018-12-04T00:52:18.249Z,80.15
2018-12-04T00:52:52.870Z,80.01
2018-12-04T00:53:27.434Z,80.09
2018-12-04T00:54:02.138Z,80.41
2018-12-04T00:54:36.818Z,80.31
2018-12-04T00:55:11.433Z,79.95
2018-12-04T00:55:46.086Z,79.92
2018-12-04T00:56:20.823Z,80.04
2018-12-04T00:56:55.581Z,80.01
2018-12-04T00:57:30.197Z,79.97
2018-12-04T00:58:04.824Z,80.19
2018-12-04T00:58:39.396Z,79.65
2018-12-04T00:59:14.078Z,79.88
2018-12-04T00:59:49.315Z,79.84
2018-12-04T01:00:24.106Z,79.80
2018-12-04T01:00:58.699Z,80.15
2018-12-04T01:01:33.445Z,79.93
2018-12-04T01:02:07.998Z,80.09
2018-12-04T01:02:42.596Z,79.90
2018-12-04T01:03:17.330Z,80.14
2018-12-04T01:03:51.947Z,80.25
2018-12-04T01:04:26.560Z,80.33
2018-12-04T01:05:01.116Z,80.26
2018-12-04T01:05:35.718Z,80.41
2018-12-04T01:06:10.340Z,80.43
2018-12-04T01:06:44.964Z,80.61
2018-12-04T01:07:19.738Z,80.51
2018-12-04T01:07:54.483Z,80.29
2018-12-04T01:08:29.776Z,80.13
2018-12-04T01:09:10.186Z,80.15
2018-12-04T01:09:44.911Z,79.68
2018-12-04T01:10:19.498Z,79.86
2018-12-04T01:10:54.077Z,79.69
2018-12-04T01:11:28.721Z,79.75
2018-12-04T01:12:03.320Z,79.89
2018-12-04T01:12:37.971Z,79.99
2018-12-04T01:13:12.586Z,79.93
2018-12-04T01:13:47.181Z,79.62
2018-12-04T01:14:21.788Z,79.80
2018-12-04T01:14:57.631Z,79.67
2018-12-04T01:15:32.356Z,79.43
2018-12-04T01:16:07.428Z,79.21
2018-12-04T01:16:42.014Z,78.86
2018-12-04T01:17:16.594Z,78.92
2018-12-04T01:17:51.189Z,78.81
2018-12-04T01:18:25.821Z,79.21
2018-12-04T01:19:00.841Z,78.99
2018-12-04T01:19:35.438Z,78.90
2018-12-04T01:20:10.414Z,78.54
2018-12-04T01:20:44.997Z,78.49
2018-12-04T01:21:19.606Z,78.38
2018-12-04T01:21:54.265Z,78.59
2018-12-04T01:22:28.863Z,77.97
2018-12-04T01:23:03.474Z,78.28
2018-12-04T01:23:38.067Z,78.29
2018-12-04T01:24:12.631Z,78.25
2018-12-04T01:24:47.231Z,78.47
2018-12-04T01:25:21.958Z,78.29
2018-12-04T01:25:56.560Z,78.22
2018-12-04T01:26:31.112Z,78.25
2018-12-04T01:27:05.808Z,78.22
2018-12-04T01:27:40.490Z,78.58
2018-12-04T01:28:15.102Z,78.81
2018-12-04T01:28:49.697Z,78.52
2018-12-04T01:29:24.353Z,78.66
2018-12-04T01:29:59.057Z,78.46
2018-12-04T01:30:33.638Z,78.70
2018-12-04T01:31:08.248Z,78.95
2018-12-04T01:31:42.937Z,79.01
2018-12-04T01:32:17.615Z,79.02
2018-12-04T01:32:52.197Z,78.63
2018-12-04T01:33:26.807Z,78.60
2018-12-04T01:34:01.351Z,78.54
2018-12-04T01:34:35.949Z,78.35
2018-12-04T01:35:11.057Z,78.44
2018-12-04T01:35:45.636Z,78.61
2018-12-04T01:36:20.689Z,78.84
2018-12-04T01:36:55.261Z,78.88
2018-12-04T01:37:29.950Z,78.44
2018-12-04T01:38:05.067Z,78.34
2018-12-04T01:38:39.677Z,78.41
2018-12-04T01:39:14.285Z,78.62
2018-12-04T01:39:48.907Z,78.16
2018-12-04T01:40:23.514Z,78.34
2018-12-04T01:40:58.170Z,78.07
2018-12-04T01:41:32.767Z,78.32
2018-12-04T01:42:07.347Z,78.01
2018-12-04T01:42:41.925Z,77.84
2018-12-04T01:43:16.514Z,78.08
2018-12-04T01:43:51.149Z,78.05
2018-12-04T01:44:25.862Z,77.84
2018-12-04T01:45:00.678Z,78.07
2018-12-04T01:45:35.283Z,77.90
2018-12-04T01:46:09.868Z,77.70
2018-12-04T01:46:44.927Z,77.56
2018-12-04T01:47:19.560Z,77.96
2018-12-04T01:47:54.119Z,77.90
2018-12-04T01:48:28.696Z,77.84
2018-12-04T01:49:03.262Z,78.29
2018-12-04T01:49:37.907Z,78.09
2018-12-04T01:50:12.598Z,78.07
2018-12-04T01:50:47.208Z,78.13
2018-12-04T01:51:21.941Z,78.08
2018-12-04T01:51:56.535Z,77.98
2018-12-04T01:52:31.165Z,77.71
2018-12-04T01:53:05.760Z,77.36
2018-12-04T01:53:40.505Z,77.35
2018-12-04T01:54:15.101Z,77.27
2018-12-04T01:54:49.798Z,77.72
2018-12-04T01:55:24.440Z,77.46
2018-12-04T01:55:59.031Z,77.29
2018-12-04T01:56:33.614Z,77.17
2018-12-04T01:57:08.704Z,77.18
2018-12-04T01:57:43.317Z,76.88
2018-12-04T01:58:18.167Z,77.21
2018-12-04T01:58:52.979Z,76.75
2018-12-04T01:59:27.668Z,77.16
2018-12-04T02:00:02.736Z,76.33
2018-12-04T02:00:37.310Z,76.13
2018-12-04T02:01:11.925Z,76.41
2018-12-04T02:01:46.491Z,77.00
2018-12-04T02:02:21.142Z,76.66
2018-12-04T02:02:55.729Z,76.71
2018-12-04T02:03:30.573Z,76.54
2018-12-04T02:04:05.830Z,76.51
2018-12-04T02:04:41.144Z,76.40
2018-12-04T02:05:16.344Z,76.47
2018-12-04T02:05:51.081Z,76.37
2018-12-04T02:06:25.771Z,76.56
2018-12-04T02:07:00.356Z,76.43
2018-12-04T02:07:34.936Z,77.26
2018-12-04T02:08:09.546Z,76.66
2018-12-04T02:08:44.294Z,76.86
2018-12-04T02:09:18.943Z,77.06
2018-12-04T02:09:54.143Z,77.01
2018-12-04T02:10:28.872Z,76.96
2018-12-04T02:11:03.660Z,77.13
2018-12-04T02:11:38.298Z,76.85
2018-12-04T02:12:12.863Z,76.56
2018-12-04T02:12:47.436Z,76.20
2018-12-04T02:13:22.333Z,76.38
2018-12-04T02:13:56.983Z,76.54
2018-12-04T02:14:31.662Z,76.76
2018-12-04T02:15:06.695Z,76.77
2018-12-04T02:15:41.270Z,76.77
2018-12-04T02:16:15.981Z,76.70
2018-12-04T02:16:50.629Z,76.60
2018-12-04T02:17:25.243Z,76.73
2018-12-04T02:17:59.836Z,76.55
2018-12-04T02:18:34.437Z,76.39
2018-12-04T02:19:09.012Z,76.52
2018-12-04T02:19:43.677Z,76.74
2018-12-04T02:20:19.255Z,76.58
2018-12-04T02:20:53.888Z,76.47
2018-12-04T02:21:28.635Z,76.62
2018-12-04T02:22:03.249Z,76.31
2018-12-04T02:22:38.050Z,76.44
2018-12-04T02:23:12.609Z,76.22
2018-12-04T02:23:47.221Z,76.12
2018-12-04T02:24:22.005Z,76.40
2018-12-04T02:24:56.644Z,76.33
2018-12-04T02:25:31.742Z,76.81
2018-12-04T02:26:06.326Z,76.77
2018-12-04T02:26:41.004Z,76.60
2018-12-04T02:27:15.568Z,76.75
2018-12-04T02:27:50.440Z,76.85
2018-12-04T02:28:29.356Z,76.79
2018-12-04T02:29:04.638Z,76.95
2018-12-04T02:29:39.289Z,76.88
2018-12-04T02:30:14.441Z,76.85
2018-12-04T02:30:49.207Z,76.58
2018-12-04T02:31:24.514Z,76.72
2018-12-04T02:31:59.186Z,76.19
2018-12-04T02:32:33.793Z,76.31
2018-12-04T02:33:08.400Z,76.76
2018-12-04T02:33:42.988Z,76.91
2018-12-04T02:34:17.603Z,76.85
2018-12-04T02:34:52.444Z,77.03
2018-12-04T02:35:27.363Z,76.85
2018-12-04T02:36:02.694Z,76.94
2018-12-04T02:36:37.743Z,77.17
2018-12-04T02:37:12.305Z,77.27
2018-12-04T02:37:46.967Z,77.19
2018-12-04T02:38:21.716Z,77.15
2018-12-04T02:38:56.391Z,76.89
2018-12-04T02:39:31.024Z,77.15
2018-12-04T02:40:06.938Z,76.96
2018-12-04T02:40:41.809Z,76.57
2018-12-04T02:41:16.497Z,76.59
2018-12-04T02:41:51.183Z,76.76
2018-12-04T02:42:25.859Z,76.87
2018-12-04T02:43:00.714Z,76.69
2018-12-04T02:43:35.364Z,76.79
2018-12-04T02:44:10.078Z,76.72
2018-12-04T02:44:44.663Z,76.61
2018-12-04T02:45:19.284Z,76.85
2018-12-04T02:45:54.063Z,76.93
2018-12-04T02:46:28.724Z,76.76
2018-12-04T02:47:03.348Z,76.98
2018-12-04T02:47:37.981Z,77.27
2018-12-04T02:48:12.632Z,77.05
2018-12-04T02:48:47.258Z,77.12
2018-12-04T02:49:22.161Z,76.89
2018-12-04T02:49:56.818Z,76.99
2018-12-04T02:50:31.464Z,77.19
2018-12-04T02:51:06.604Z,77.24
2018-12-04T02:51:41.194Z,77.36
2018-12-04T02:52:15.916Z,77.17
2018-12-04T02:52:50.654Z,76.87
2018-12-04T02:53:25.350Z,76.96
2018-12-04T02:53:59.951Z,76.79
2018-12-04T02:54:34.594Z,76.74
2018-12-04T02:55:09.234Z,76.76
2018-12-04T02:55:43.850Z,76.98
2018-12-04T02:56:18.585Z,76.98
2018-12-04T02:56:53.251Z,76.98
2018-12-04T02:57:28.388Z,76.91
2018-12-04T02:58:03.079Z,76.90
2018-12-04T02:58:37.816Z,76.86
2018-12-04T02:59:12.428Z,76.84
2018-12-04T02:59:47.134Z,76.70
2018-12-04T03:00:22.158Z,76.82
2018-12-04T03:00:56.798Z,76.67
2018-12-04T03:01:31.490Z,76.30
2018-12-04T03:02:06.552Z,76.58
2018-12-04T03:02:41.190Z,76.79
2018-12-04T03:03:16.164Z,76.65
2018-12-04T03:03:51.013Z,76.82
2018-12-04T03:04:25.664Z,76.22
2018-12-04T03:05:00.408Z,76.15
2018-12-04T03:05:35.608Z,76.27
2018-12-04T03:06:10.225Z,75.83
2018-12-04T03:06:44.869Z,76.16
2018-12-04T03:07:19.509Z,75.81
2018-12-04T03:07:54.172Z,75.95
2018-12-04T03:08:28.810Z,75.75
2018-12-04T03:09:04.278Z,75.85
2018-12-04T03:09:38.883Z,76.17
2018-12-04T03:10:14.025Z,76.40
2018-12-04T03:10:48.660Z,76.40
2018-12-04T03:11:23.350Z,76.81
2018-12-04T03:11:57.969Z,76.41
2018-12-04T03:12:33.029Z,76.08
2018-12-04T03:13:07.638Z,76.19
2018-12-04T03:13:42.322Z,76.50
2018-12-04T03:14:16.949Z,76.06
2018-12-04T03:14:51.646Z,75.76
2018-12-04T03:15:26.513Z,75.61
2018-12-04T03:16:01.156Z,75.34
2018-12-04T03:16:35.767Z,75.40
2018-12-04T03:17:10.462Z,75.63
2018-12-04T03:17:45.092Z,75.35
2018-12-04T03:18:19.775Z,75.04
2018-12-04T03:18:54.799Z,75.07
2018-12-04T03:19:29.412Z,74.61
2018-12-04T03:20:05.650Z,74.70
2018-12-04T03:20:40.309Z,74.65
2018-12-04T03:21:15.136Z,74.79
2018-12-04T03:21:49.848Z,74.31
2018-12-04T03:22:24.543Z,74.16
2018-12-04T03:22:59.190Z,74.10
2018-12-04T03:23:33.801Z,74.67
2018-12-04T03:24:08.651Z,74.59
2018-12-04T03:24:43.248Z,74.68
2018-12-04T03:25:17.946Z,74.62
2018-12-04T03:25:52.643Z,74.65
2018-12-04T03:26:27.401Z,74.74
2018-12-04T03:27:02.046Z,74.90
2018-12-04T03:27:36.750Z,74.47
2018-12-04T03:28:11.403Z,74.17
2018-12-04T03:28:46.364Z,74.00
2018-12-04T03:29:21.124Z,74.33
2018-12-04T03:29:55.817Z,74.53
2018-12-04T03:30:30.955Z,74.69
2018-12-04T03:31:05.585Z,74.41
2018-12-04T03:31:40.226Z,74.06
2018-12-04T03:32:15.334Z,74.20
2018-12-04T03:32:50.008Z,74.21
2018-12-04T03:33:38.078Z,73.92
2018-12-04T03:34:12.718Z,74.28
2018-12-04T03:34:47.351Z,73.58
2018-12-04T03:35:22.208Z,73.58
2018-12-04T03:35:57.028Z,73.65
2018-12-04T03:36:31.651Z,73.53
2018-12-04T03:37:06.326Z,73.65
2018-12-04T03:37:40.956Z,73.53
2018-12-04T03:38:15.562Z,73.65
2018-12-04T03:38:50.312Z,73.74
2018-12-04T03:39:25.014Z,73.75
2018-12-04T03:39:59.679Z,73.19
2018-12-04T03:40:34.861Z,72.43
2018-12-04T03:41:09.669Z,73.05
2018-12-04T03:41:45.336Z,72.82
2018-12-04T03:42:20.300Z,72.85
2018-12-04T03:42:55.162Z,72.84
2018-12-04T03:43:29.820Z,73.34
2018-12-04T03:44:04.742Z,73.38
2018-12-04T03:44:39.856Z,72.35
2018-12-04T03:45:14.504Z,72.17
2018-12-04T03:45:49.791Z,71.75
2018-12-04T03:46:24.481Z,71.49
2018-12-04T03:46:59.165Z,71.81
2018-12-04T03:47:33.788Z,71.67
2018-12-04T03:48:08.465Z,71.68
2018-12-04T03:48:43.119Z,71.64
2018-12-04T03:49:17.767Z,71.55
2018-12-04T03:49:52.594Z,71.49
2018-12-04T03:50:27.359Z,71.36
2018-12-04T03:51:02.111Z,71.50
2018-12-04T03:51:36.737Z,71.69
2018-12-04T03:52:11.354Z,71.54
2018-12-04T03:52:46.028Z,71.58
2018-12-04T03:53:20.786Z,71.21
2018-12-04T03:53:55.744Z,71.03
2018-12-04T03:54:30.901Z,71.36
2018-12-04T03:55:06.715Z,70.88
2018-12-04T03:55:41.332Z,70.29
2018-12-04T03:56:15.986Z,70.02
2018-12-04T03:56:51.014Z,69.86
2018-12-04T03:57:25.770Z,69.48
2018-12-04T03:58:00.426Z,69.63
2018-12-04T03:58:35.055Z,69.67
2018-12-04T03:59:09.778Z,70.01
2018-12-04T03:59:44.464Z,70.24
2018-12-04T04:00:19.614Z,69.64
2018-12-04T04:00:54.379Z,69.80
2018-12-04T04:01:29.333Z,70.04
2018-12-04T04:02:04.183Z,70.28
2018-12-04T04:02:38.872Z,70.17
2018-12-04T04:03:13.604Z,70.04
2018-12-04T04:03:48.232Z,70.09
2018-12-04T04:04:23.202Z,70.28
2018-12-04T04:04:58.189Z,69.87
2018-12-04T04:05:33.199Z,69.59
2018-12-04T04:06:07.893Z,69.40
2018-12-04T04:06:42.614Z,68.79
2018-12-04T04:07:17.270Z,69.60
2018-12-04T04:07:52.004Z,69.49
2018-12-04T04:08:26.753Z,69.65
2018-12-04T04:09:01.403Z,69.72
2018-12-04T04:09:36.024Z,69.82
2018-12-04T04:10:10.665Z,69.79
2018-12-04T04:10:45.560Z,69.76
2018-12-04T04:11:20.185Z,69.74
2018-12-04T04:11:55.001Z,69.80
2018-12-04T04:12:29.681Z,69.89
2018-12-04T04:13:04.745Z,69.62
2018-12-04T04:13:39.553Z,69.05
2018-12-04T04:14:14.299Z,69.20
2018-12-04T04:14:49.206Z,68.90
2018-12-04T04:15:23.853Z,69.22
2018-12-04T04:15:58.457Z,69.67
2018-12-04T04:16:33.108Z,69.92
2018-12-04T04:17:07.710Z,69.60
2018-12-04T04:17:42.349Z,69.67
2018-12-04T04:18:16.961Z,70.07
2018-12-04T04:18:51.758Z,69.58
2018-12-04T04:19:26.524Z,69.70
2018-12-04T04:20:01.132Z,69.66
2018-12-04T04:20:36.217Z,69.90
2018-12-04T04:21:11.292Z,69.75
2018-12-04T04:21:45.938Z,69.66
2018-12-04T04:22:20.600Z,70.09
2018-12-04T04:22:55.278Z,70.09
2018-12-04T04:23:29.891Z,69.89
2018-12-04T04:24:05.096Z,69.36
2018-12-04T04:24:39.721Z,70.00
2018-12-04T04:25:14.340Z,69.80
2018-12-04T04:25:49.294Z,69.62
2018-12-04T04:26:24.023Z,69.49
2018-12-04T04:26:58.711Z,69.37
2018-12-04T04:27:33.357Z,69.16
2018-12-04T04:28:07.992Z,69.48
2018-12-04T04:28:42.625Z,69.77
2018-12-04T04:29:17.304Z,69.75
2018-12-04T04:29:52.140Z,69.79
2018-12-04T04:30:26.856Z,69.14
2018-12-04T04:31:01.478Z,68.89
2018-12-04T04:31:36.720Z,68.60
2018-12-04T04:32:11.354Z,68.54
2018-12-04T04:32:46.026Z,68.35
2018-12-04T04:33:20.748Z,68.87
2018-12-04T04:33:55.398Z,69.02
2018-12-04T04:34:30.312Z,69.29
2018-12-04T04:35:05.872Z,69.29
2018-12-04T04:35:40.482Z,69.54
2018-12-04T04:36:15.090Z,69.00
2018-12-04T04:36:49.750Z,68.94
2018-12-04T04:37:24.490Z,68.76
2018-12-04T04:37:59.131Z,68.93
2018-12-04T04:38:33.782Z,69.17
2018-12-04T04:39:08.742Z,70.00
2018-12-04T04:39:43.622Z,70.10
2018-12-04T04:40:18.209Z,69.01
2018-12-04T04:40:52.858Z,69.00
2018-12-04T04:41:27.452Z,68.76
2018-12-04T04:42:02.033Z,69.29
2018-12-04T04:42:36.616Z,69.40
2018-12-04T04:43:11.194Z,69.19
2018-12-04T04:43:45.896Z,69.03
2018-12-04T04:44:20.527Z,69.13
2018-12-04T04:44:55.188Z,69.35
2018-12-04T04:45:29.761Z,69.15
2018-12-04T04:46:04.753Z,68.05
2018-12-04T04:46:39.375Z,68.74
2018-12-04T04:47:13.956Z,69.27
2018-12-04T04:47:48.567Z,69.53
2018-12-04T04:48:23.295Z,69.09
2018-12-04T04:48:58.218Z,69.26
2018-12-04T04:49:32.835Z,69.38
2018-12-04T04:50:08.339Z,68.74
2018-12-04T04:50:42.910Z,69.07
2018-12-04T04:51:17.493Z,69.19
2018-12-04T04:51:52.231Z,68.86
2018-12-04T04:52:26.859Z,68.99
2018-12-04T04:53:01.464Z,68.58
2018-12-04T04:53:36.006Z,68.46
2018-12-04T04:54:10.655Z,68.84
2018-12-04T04:54:45.268Z,68.35
2018-12-04T04:55:20.004Z,68.30
2018-12-04T04:55:54.627Z,68.53
2018-12-04T04:56:29.232Z,68.68
2018-12-04T04:57:04.173Z,68.73
2018-12-04T04:57:38.838Z,68.52
2018-12-04T04:58:13.437Z,68.33
2018-12-04T04:58:48.137Z,68.88
2018-12-04T04:59:22.830Z,68.47
2018-12-04T04:59:57.498Z,68.17
2018-12-04T05:00:32.092Z,68.51
2018-12-04T05:01:06.706Z,68.39
2018-12-04T05:01:41.345Z,68.29
2018-12-04T05:02:15.945Z,68.29
2018-12-04T05:02:50.612Z,68.22
2018-12-04T05:03:25.265Z,68.17
2018-12-04T05:04:00.734Z,67.98
2018-12-04T05:04:35.314Z,67.87
2018-12-04T05:05:09.941Z,68.39
2018-12-04T05:05:44.550Z,68.23
2018-12-04T05:06:19.196Z,68.08
2018-12-04T05:06:53.919Z,68.38
2018-12-04T05:07:28.589Z,68.25
2018-12-04T05:08:03.852Z,68.30
2018-12-04T05:08:38.538Z,68.22
2018-12-04T05:09:13.141Z,68.19
2018-12-04T05:09:47.753Z,68.57
2018-12-04T05:10:22.856Z,69.04
2018-12-04T05:10:57.554Z,68.79
2018-12-04T05:11:32.146Z,68.98
2018-12-04T05:12:06.726Z,68.37
2018-12-04T05:12:41.315Z,68.62
2018-12-04T05:13:16.139Z,68.95
2018-12-04T05:13:50.829Z,68.50
2018-12-04T05:14:26.062Z,68.10
2018-12-04T05:15:00.760Z,68.65
2018-12-04T05:15:35.354Z,68.84
2018-12-04T05:16:10.000Z,69.27
2018-12-04T05:16:44.586Z,68.58
2018-12-04T05:17:19.168Z,68.60
2018-12-04T05:17:53.883Z,68.86
2018-12-04T05:18:28.548Z,68.87
2018-12-04T05:19:03.589Z,69.07
2018-12-04T05:19:38.139Z,68.55
2018-12-04T05:20:12.729Z,68.19
2018-12-04T05:20:47.792Z,68.35
2018-12-04T05:21:22.445Z,68.51
2018-12-04T05:21:57.115Z,69.02
2018-12-04T05:22:31.700Z,69.23
2018-12-04T05:23:06.326Z,69.69
2018-12-04T05:23:40.895Z,69.56
2018-12-04T05:24:15.477Z,68.86
2018-12-04T05:24:50.114Z,68.33
2018-12-04T05:25:25.068Z,68.28
2018-12-04T05:25:59.742Z,68.78
2018-12-04T05:26:34.342Z,69.00
2018-12-04T05:27:08.933Z,69.05
2018-12-04T05:27:43.566Z,69.05
2018-12-04T05:28:18.196Z,69.22
2018-12-04T05:28:53.319Z,69.13
2018-12-04T05:29:28.078Z,68.87
2018-12-04T05:30:02.929Z,69.08
2018-12-04T05:30:37.540Z,69.18
2018-12-04T05:31:12.307Z,69.54
2018-12-04T05:31:46.957Z,69.77
2018-12-04T05:32:21.650Z,69.47
2018-12-04T05:32:56.342Z,69.05
2018-12-04T05:33:31.058Z,69.45
2018-12-04T05:34:05.658Z,69.81
2018-12-04T05:34:40.402Z,70.17
2018-12-04T05:35:15.035Z,70.67
2018-12-04T05:35:49.685Z,70.83
2018-12-04T05:36:24.507Z,70.74
2018-12-04T05:36:59.141Z,70.93
2018-12-04T05:37:33.733Z,70.61
2018-12-04T05:38:08.433Z,69.84
2018-12-04T05:38:43.322Z,70.21
2018-12-04T05:39:17.994Z,70.04
2018-12-04T05:39:52.646Z,70.52
2018-12-04T05:40:27.522Z,70.28
2018-12-04T05:41:02.168Z,70.37
2018-12-04T05:41:36.810Z,71.08
2018-12-04T05:42:11.430Z,70.80
2018-12-04T05:42:46.078Z,70.51
2018-12-04T05:43:20.981Z,70.53
2018-12-04T05:43:55.681Z,71.01
2018-12-04T05:44:30.349Z,70.65
2018-12-04T05:45:06.033Z,71.33
2018-12-04T05:45:40.700Z,71.46
2018-12-04T05:46:15.341Z,71.42
2018-12-04T05:46:50.232Z,72.18
2018-12-04T05:47:24.989Z,72.10
2018-12-04T05:47:59.621Z,71.43
2018-12-04T05:48:34.292Z,72.06
2018-12-04T05:49:08.898Z,72.15
2018-12-04T05:49:43.539Z,72.46
2018-12-04T05:50:18.564Z,72.09
2018-12-04T05:50:53.456Z,72.63
2018-12-04T05:51:28.099Z,72.92
2018-12-04T05:52:02.735Z,72.86
2018-12-04T05:52:37.414Z,72.62
2018-12-04T05:53:23.148Z,72.76
2018-12-04T05:53:57.892Z,73.31
2018-12-04T05:54:32.959Z,72.98
2018-12-04T05:55:08.071Z,73.69
2018-12-04T06:00:48.317Z,75.04
2018-12-04T06:01:23.114Z,75.46
2018-12-04T06:01:57.760Z,75.68
2018-12-04T06:02:32.377Z,75.42
2018-12-04T06:03:07.448Z,75.70
2018-12-04T06:03:42.060Z,75.50
2018-12-04T06:04:16.678Z,75.60
2018-12-04T06:04:51.471Z,75.97
2018-12-04T06:05:26.194Z,76.85
2018-12-04T06:06:00.829Z,77.00
2018-12-04T06:06:35.439Z,76.99
2018-12-04T06:07:10.049Z,77.25
2018-12-04T06:07:44.865Z,77.10
2018-12-04T06:08:19.642Z,76.79
2018-12-04T06:08:54.432Z,76.95
2018-12-04T06:09:29.109Z,77.00
2018-12-04T06:10:05.281Z,76.90
2018-12-04T06:10:40.022Z,75.74
2018-12-04T06:11:14.633Z,76.15
2018-12-04T06:11:49.381Z,76.00
2018-12-04T06:12:24.151Z,76.79
2018-12-04T06:12:58.865Z,77.11
2018-12-04T06:13:33.642Z,76.74
2018-12-04T06:14:08.294Z,76.38
2018-12-04T06:14:42.894Z,76.52
2018-12-04T06:15:17.495Z,76.47
2018-12-04T06:15:52.198Z,76.97
2018-12-04T06:16:26.929Z,77.14
2018-12-04T06:17:01.992Z,77.00
2018-12-04T06:17:36.604Z,77.31
2018-12-04T06:18:11.730Z,77.09
2018-12-04T06:18:46.673Z,77.03
2018-12-04T06:19:21.382Z,77.39
2018-12-04T06:19:56.168Z,77.47
2018-12-04T06:20:30.797Z,77.34
2018-12-04T06:21:05.512Z,77.30
2018-12-04T06:21:40.145Z,77.10
2018-12-04T06:22:14.767Z,76.78
2018-12-04T06:22:49.730Z,77.18
2018-12-04T06:23:25.059Z,77.07
2018-12-04T06:23:59.765Z,76.90
2018-12-04T06:24:34.422Z,77.01
2018-12-04T06:25:09.505Z,76.94
2018-12-04T06:25:44.605Z,76.78
2018-12-04T06:26:19.254Z,76.87
2018-12-04T06:26:53.921Z,77.55
2018-12-04T06:27:28.590Z,77.33
2018-12-04T06:28:03.194Z,77.49
2018-12-04T06:28:37.841Z,76.56
2018-12-04T06:29:12.453Z,76.14
2018-12-04T06:29:47.064Z,76.60
2018-12-04T06:30:22.070Z,76.39
2018-12-04T06:30:57.066Z,76.66
2018-12-04T06:31:31.795Z,76.95
2018-12-04T06:32:06.444Z,76.98
2018-12-04T06:32:41.615Z,76.62
2018-12-04T06:33:16.597Z,76.81
2018-12-04T06:33:51.620Z,76.32
2018-12-04T06:34:26.309Z,76.15
2018-12-04T06:35:00.909Z,76.30
2018-12-04T06:35:35.564Z,76.27
2018-12-04T06:36:10.406Z,76.37
2018-12-04T06:36:45.045Z,76.51
2018-12-04T06:37:19.919Z,76.02
2018-12-04T06:37:54.697Z,76.50
2018-12-04T06:38:29.374Z,75.96
2018-12-04T06:39:06.631Z,75.75
2018-12-04T06:39:41.268Z,75.47
2018-12-04T06:40:15.975Z,75.43
2018-12-04T06:40:51.303Z,75.93
2018-12-04T06:41:26.211Z,74.56
2018-12-04T06:42:01.067Z,74.65
2018-12-04T06:42:35.817Z,74.88
2018-12-04T06:43:10.592Z,74.96
2018-12-04T06:43:45.194Z,74.83
2018-12-04T06:44:19.944Z,74.48
2018-12-04T06:44:54.689Z,75.00
2018-12-04T06:45:29.328Z,74.55
2018-12-04T06:46:04.118Z,74.33
2018-12-04T06:46:38.763Z,73.87
2018-12-04T06:47:13.379Z,74.56
2018-12-04T06:47:48.057Z,74.81
2018-12-04T06:48:22.934Z,73.80
2018-12-04T06:48:57.700Z,73.53
2018-12-04T06:49:32.392Z,73.51
2018-12-04T06:50:10.260Z,74.31
2018-12-04T06:50:44.921Z,73.12
2018-12-04T06:51:19.621Z,72.89
2018-12-04T06:51:54.414Z,73.72
2018-12-04T06:52:29.321Z,72.22
2018-12-04T06:53:04.012Z,72.44
2018-12-04T06:53:38.921Z,72.73
2018-12-04T06:54:13.531Z,72.68
2018-12-04T06:54:48.235Z,72.21
2018-12-04T06:55:23.341Z,72.42
2018-12-04T06:55:58.056Z,72.79
2018-12-04T06:56:32.756Z,72.17
2018-12-04T06:57:07.886Z,73.17
2018-12-04T06:57:42.600Z,73.64
2018-12-04T06:58:17.338Z,73.39
2018-12-04T06:58:52.337Z,73.51
2018-12-04T06:59:27.464Z,72.51
2018-12-04T07:00:02.241Z,72.89
2018-12-04T07:00:36.849Z,73.47
2018-12-04T07:01:11.667Z,73.21
2018-12-04T07:01:46.287Z,72.86
2018-12-04T07:02:21.020Z,72.69
2018-12-04T07:02:55.876Z,73.51
2018-12-04T07:03:30.502Z,73.88
2018-12-04T07:04:05.154Z,73.58
2018-12-04T07:04:39.807Z,73.80
2018-12-04T07:05:14.500Z,73.48
2018-12-04T07:05:53.414Z,73.04
2018-12-04T07:06:28.066Z,73.01
2018-12-04T07:07:02.874Z,73.99
2018-12-04T07:07:37.596Z,73.88
2018-12-04T07:08:12.195Z,74.30
2018-12-04T07:08:46.940Z,73.95
2018-12-04T07:09:21.664Z,73.54
2018-12-04T07:09:56.461Z,73.96
2018-12-04T07:10:31.601Z,74.17
2018-12-04T07:11:09.098Z,73.47
2018-12-04T07:11:43.828Z,73.79
2018-12-04T07:12:18.438Z,73.91
2018-12-04T07:12:53.391Z,74.11
2018-12-04T07:13:28.379Z,73.11
2018-12-04T07:14:03.406Z,73.45
2018-12-04T07:14:38.302Z,73.18
2018-12-04T07:15:14.009Z,73.30
2018-12-04T07:15:48.689Z,73.36
2018-12-04T07:16:23.545Z,73.22
2018-12-04T07:16:58.227Z,73.94
2018-12-04T07:17:32.857Z,73.77
2018-12-04T07:18:07.489Z,74.63
2018-12-04T07:18:42.124Z,74.01
2018-12-04T07:19:16.808Z,74.45
2018-12-04T07:19:51.998Z,74.12
2018-12-04T07:20:26.617Z,74.19
2018-12-04T07:21:01.286Z,74.35
2018-12-04T07:21:35.915Z,74.41
2018-12-04T07:22:10.505Z,74.84
2018-12-04T07:22:45.136Z,74.71
2018-12-04T07:23:19.856Z,75.15
2018-12-04T07:23:54.580Z,74.90
2018-12-04T07:24:29.293Z,74.47
2018-12-04T07:25:05.638Z,74.97
2018-12-04T07:25:40.273Z,75.41
2018-12-04T07:26:14.906Z,75.66
2018-12-04T07:26:49.822Z,75.56
2018-12-04T07:27:24.671Z,74.72
2018-12-04T07:27:59.387Z,75.22
2018-12-04T07:28:33.999Z,75.21
2018-12-04T07:29:08.701Z,74.50
2018-12-04T07:29:43.366Z,74.21
2018-12-04T07:30:18.066Z,75.11
2018-12-04T07:30:52.801Z,75.27
2018-12-04T07:31:27.468Z,74.96
2018-12-04T07:32:02.103Z,75.83
2018-12-04T07:32:38.916Z,76.18
2018-12-04T07:33:13.832Z,76.18
2018-12-04T07:33:48.802Z,76.34
2018-12-04T07:34:23.687Z,76.35
2018-12-04T07:34:58.345Z,76.72
2018-12-04T07:35:33.075Z,76.53
2018-12-04T07:36:07.786Z,76.66
2018-12-04T07:36:42.408Z,76.76